KGGW

Wokal Field / Glasgow International Airport

Glasgow, Montana, USA
METAR KGGW 151853Z AUTO 11023KT 1 1/2SM HZ OVC110 M19/M23 A2984 RMK AO2 PK WND 11029/1842 SLP176 T11891233
Observed Flight Rules
Feb-15 @ 18:53 UTC (14 minutes ago) Instrument Flight Rules
Wind Visibility Clouds Conditions
110° at 23 knots 1 1/2 miles
  • Overcast at 11,000' AGL
  • Haze
Temperatures Readings
Current -19°C / -2°F
Dewpoint -23°C / -9°F
Humidity 71%
Altimeter 29.84" Hg
Pressure 1017.6 hPa
Elevation 694
METAR KGGW 151853Z AUTO 11023KT 1 1/2SM HZ OVC110 M19/M23 A2984 RMK AO2 PK WND 11029/1842 SLP176 T11891233
Observed Flight Rules
Feb-15 @ 18:53 UTC
(14 minutes ago)
IFR
Wind Visibility
110° at 23 knots 1 1/2 miles
Clouds
  • Overcast at 11,000' AGL
Conditions
  • Haze
Temperature Dewpoint
-19°C / -2°F -23°C / -9°F
Humidity Altimeter Pressure
71% 29.84" Hg 1017.6 hPa